Time;durP1;ratioP1;P1;durP2;ratioP2;P2;SDS_P1;SDS_P2;PMS_P1;PMS_P2;Temp;Humidity;BMP_temperature;BMP_pressure;BME280_temperature;BME280_humidity;BME280_pressure;Samples;Min_cycle;Max_cycle;Signal;HPM_P1;HPM_P2
2022/07/16 00:02:24;;;;;;;;;5.33;4.00;;;;;;;;5077978;28;45322;-68
2022/07/16 00:04:50;;;;;;;;;4.00;4.00;;;;;;;;5078000;28;45557;-68
2022/07/16 00:07:15;;;;;;;;;7.67;4.00;;;;;;;;5077754;28;46449;-68
2022/07/16 00:09:40;;;;;;;;;5.33;4.00;;;;;;;;5077224;28;45595;-68
2022/07/16 00:12:05;;;;;;;;;9.00;5.00;;;;;;;;5077950;28;45410;-68
2022/07/16 00:14:31;;;;;;;;;5.00;5.00;;;;;;;;5078181;28;45411;-69
2022/07/16 00:16:56;;;;;;;;;5.67;5.00;;;;;;;;5077567;28;45431;-68
2022/07/16 00:19:23;;;;;;;;;4.33;4.33;;;;;;;;5077428;28;45495;-69
2022/07/16 00:21:51;;;;;;;;;4.33;4.33;;;;;;;;5077901;28;45329;-69
2022/07/16 00:24:17;;;;;;;;;5.67;4.00;;;;;;;;5077927;28;45322;-69
2022/07/16 00:26:42;;;;;;;;;4.67;4.67;;;;;;;;5077576;28;46188;-68
2022/07/16 00:29:08;;;;;;;;;4.67;4.67;;;;;;;;5077685;28;45236;-69
2022/07/16 00:31:34;;;;;;;;;6.00;5.00;;;;;;;;5077680;28;45417;-69
2022/07/16 00:33:59;;;;;;;;;10.00;8.67;;;;;;;;5077630;28;45525;-69
2022/07/16 00:36:24;;;;;;;;;5.67;4.00;;;;;;;;5077203;28;46433;-70
2022/07/16 00:38:50;;;;;;;;;5.00;4.00;;;;;;;;5077645;28;45440;-69
2022/07/16 00:41:18;;;;;;;;;10.00;5.33;;;;;;;;5077674;28;45262;-68
2022/07/16 00:43:53;;;;;;;;;4.00;4.00;;;;;;;;5077757;28;45458;-69
2022/07/16 00:46:19;;;;;;;;;9.00;6.00;;;;;;;;5077172;28;46163;-69
2022/07/16 00:48:45;;;;;;;;;5.33;4.00;;;;;;;;5077194;28;45763;-68
2022/07/16 00:51:11;;;;;;;;;5.00;5.00;;;;;;;;5077362;28;45355;-68
2022/07/16 00:53:37;;;;;;;;;8.67;4.00;;;;;;;;5077669;28;45345;-68
2022/07/16 00:56:02;;;;;;;;;7.00;4.67;;;;;;;;5077132;28;46547;-68
2022/07/16 00:58:28;;;;;;;;;5.67;5.67;;;;;;;;5077384;28;45208;-69
2022/07/16 01:00:53;;;;;;;;;6.33;6.33;;;;;;;;5077455;28;45307;-68
2022/07/16 01:03:18;;;;;;;;;11.00;9.00;;;;;;;;5077187;28;45428;-67
2022/07/16 01:05:43;;;;;;;;;8.33;8.33;;;;;;;;5077003;28;45313;-67
2022/07/16 01:08:09;;;;;;;;;6.33;5.00;;;;;;;;5077068;28;45355;-67
2022/07/16 01:10:34;;;;;;;;;4.33;3.67;;;;;;;;5077353;28;45316;-69
2022/07/16 01:13:00;;;;;;;;;6.00;6.00;;;;;;;;5077321;28;45265;-67
2022/07/16 01:15:25;;;;;;;;;5.67;4.00;;;;;;;;5076813;28;45505;-69
2022/07/16 01:17:51;;;;;;;;;5.67;5.00;;;;;;;;5076950;28;45429;-69
2022/07/16 01:20:16;;;;;;;;;5.33;5.00;;;;;;;;5077207;28;45343;-70
2022/07/16 01:22:41;;;;;;;;;5.00;4.00;;;;;;;;5080496;27;45287;-68
2022/07/16 01:25:08;;;;;;;;;5.67;5.00;;;;;;;;5080323;28;46623;-67
2022/07/16 01:27:33;;;;;;;;;4.67;4.67;;;;;;;;5080286;28;45372;-68
2022/07/16 01:29:58;;;;;;;;;4.00;4.00;;;;;;;;5080590;28;45412;-67
2022/07/16 01:32:23;;;;;;;;;9.00;4.33;;;;;;;;5080601;28;45244;-68
2022/07/16 01:34:49;;;;;;;;;5.33;5.00;;;;;;;;5080207;28;45578;-68
2022/07/16 01:37:15;;;;;;;;;4.67;4.67;;;;;;;;5080199;28;45391;-67
2022/07/16 01:39:40;;;;;;;;;5.00;5.00;;;;;;;;5080317;28;45415;-67
2022/07/16 01:42:07;;;;;;;;;9.33;5.00;;;;;;;;5080397;28;45433;-67
2022/07/16 01:44:34;;;;;;;;;7.00;5.67;;;;;;;;5080010;28;45438;-66
2022/07/16 01:47:00;;;;;;;;;5.00;4.00;;;;;;;;5080140;28;45436;-65
2022/07/16 01:49:29;;;;;;;;;4.33;4.33;;;;;;;;5079919;28;45223;-65
2022/07/16 01:51:54;;;;;;;;;6.67;5.00;;;;;;;;5080150;28;45432;-67
2022/07/16 01:54:19;;;;;;;;;5.33;4.67;;;;;;;;5079841;28;45268;-65
2022/07/16 01:56:45;;;;;;;;;4.00;4.00;;;;;;;;5079763;28;45355;-65
2022/07/16 01:59:10;;;;;;;;;6.67;5.00;;;;;;;;5080173;28;45366;-65
2022/07/16 02:01:35;;;;;;;;;5.00;4.00;;;;;;;;5080048;28;45275;-68
2022/07/16 02:04:01;;;;;;;;;6.00;4.67;;;;;;;;5079340;28;45295;-70
2022/07/16 02:06:26;;;;;;;;;3.00;3.00;;;;;;;;5079916;28;45272;-67
2022/07/16 02:08:51;;;;;;;;;3.67;3.67;;;;;;;;5079945;28;45256;-67
2022/07/16 02:11:16;;;;;;;;;5.33;5.33;;;;;;;;5079920;28;45351;-67
2022/07/16 02:13:42;;;;;;;;;5.00;5.00;;;;;;;;5079548;28;45252;-68
2022/07/16 02:16:08;;;;;;;;;6.00;4.00;;;;;;;;5079444;28;45258;-68
2022/07/16 02:18:33;;;;;;;;;8.00;5.00;;;;;;;;5079457;28;45264;-68
2022/07/16 02:20:58;;;;;;;;;5.00;4.33;;;;;;;;5080054;28;45440;-68
2022/07/16 02:23:23;;;;;;;;;7.00;5.33;;;;;;;;5079637;28;45489;-67
2022/07/16 02:25:48;;;;;;;;;3.67;3.67;;;;;;;;5078379;28;45514;-65
2022/07/16 02:28:14;;;;;;;;;4.00;4.00;;;;;;;;5079434;28;45329;-65
2022/07/16 02:30:40;;;;;;;;;5.00;5.00;;;;;;;;5079808;28;45267;-66
2022/07/16 02:33:06;;;;;;;;;5.00;4.00;;;;;;;;5078459;28;47330;-68
2022/07/16 02:35:32;;;;;;;;;5.67;4.67;;;;;;;;5079075;28;45493;-67
2022/07/16 02:37:58;;;;;;;;;7.67;6.00;;;;;;;;5079325;28;45513;-67
2022/07/16 02:40:23;;;;;;;;;5.33;5.33;;;;;;;;5079250;28;45516;-66
2022/07/16 02:42:48;;;;;;;;;5.67;5.00;;;;;;;;5079265;28;46807;-66
2022/07/16 02:45:14;;;;;;;;;8.33;5.00;;;;;;;;5079145;28;45426;-66
2022/07/16 02:47:39;;;;;;;;;6.00;5.00;;;;;;;;5079372;28;45327;-66
2022/07/16 02:50:05;;;;;;;;;5.00;5.00;;;;;;;;5079240;28;45333;-75
2022/07/16 02:52:30;;;;;;;;;7.00;5.00;;;;;;;;5078733;28;46624;-69
2022/07/16 02:54:55;;;;;;;;;6.00;6.00;;;;;;;;5079155;28;45537;-70
2022/07/16 02:57:20;;;;;;;;;10.00;5.33;;;;;;;;5079084;28;45342;-71
2022/07/16 02:59:46;;;;;;;;;8.00;5.00;;;;;;;;5079385;28;45479;-70
2022/07/16 03:02:11;;;;;;;;;8.00;5.00;;;;;;;;5078854;28;45393;-71
2022/07/16 03:04:36;;;;;;;;;7.33;6.00;;;;;;;;5078395;28;45522;-71
2022/07/16 03:07:03;;;;;;;;;6.00;6.00;;;;;;;;5079175;28;45719;-69
2022/07/16 03:09:28;;;;;;;;;4.33;4.33;;;;;;;;5079065;28;45374;-69
2022/07/16 03:11:53;;;;;;;;;6.00;6.00;;;;;;;;5078556;28;46009;-68
2022/07/16 03:14:18;;;;;;;;;5.67;5.67;;;;;;;;5078789;28;45382;-68
2022/07/16 03:16:43;;;;;;;;;8.00;6.33;;;;;;;;5078700;28;45390;-69
2022/07/16 03:19:09;;;;;;;;;9.00;6.00;;;;;;;;5079036;28;45276;-68
2022/07/16 03:21:34;;;;;;;;;6.00;6.00;;;;;;;;5078554;28;46244;-66
2022/07/16 03:23:59;;;;;;;;;6.00;6.00;;;;;;;;5078701;28;45248;-65
2022/07/16 03:26:24;;;;;;;;;6.33;5.00;;;;;;;;5078663;28;45218;-66
2022/07/16 03:28:50;;;;;;;;;6.33;6.00;;;;;;;;5078838;28;45200;-65
2022/07/16 03:31:17;;;;;;;;;6.33;5.00;;;;;;;;5078292;28;46388;-65
2022/07/16 03:33:42;;;;;;;;;9.33;5.00;;;;;;;;5078358;28;45468;-67
2022/07/16 03:36:07;;;;;;;;;4.33;4.33;;;;;;;;5078233;28;45892;-68
2022/07/16 03:41:16;;;;;;;;;5.67;5.67;;;;;;;;5078172;28;45670;-68
2022/07/16 03:43:41;;;;;;;;;5.00;5.00;;;;;;;;5078128;28;45252;-68
2022/07/16 03:46:12;;;;;;;;;5.67;5.67;;;;;;;;5077224;28;45328;-67
2022/07/16 03:48:37;;;;;;;;;8.00;5.67;;;;;;;;5078411;28;45413;-67
2022/07/16 03:51:04;;;;;;;;;6.00;4.67;;;;;;;;5077984;28;45173;-67
2022/07/16 03:53:29;;;;;;;;;6.33;5.00;;;;;;;;5078021;28;45198;-67
2022/07/16 03:55:54;;;;;;;;;7.67;4.33;;;;;;;;5078225;28;45319;-67
2022/07/16 03:58:19;;;;;;;;;7.00;5.00;;;;;;;;5078271;28;45209;-67
2022/07/16 04:00:44;;;;;;;;;5.67;5.67;;;;;;;;5077917;28;45603;-67
2022/07/16 04:03:10;;;;;;;;;8.33;5.33;;;;;;;;5078060;28;45189;-67
2022/07/16 04:05:35;;;;;;;;;5.33;5.33;;;;;;;;5077632;28;45525;-67
2022/07/16 04:08:00;;;;;;;;;6.00;6.00;;;;;;;;5078420;28;45295;-67
2022/07/16 04:10:25;;;;;;;;;5.00;5.00;;;;;;;;5077672;28;46541;-66
2022/07/16 04:12:51;;;;;;;;;6.33;6.33;;;;;;;;5077633;28;45286;-66
2022/07/16 04:15:16;;;;;;;;;6.00;5.00;;;;;;;;5077878;28;45404;-65
2022/07/16 04:17:41;;;;;;;;;6.00;6.00;;;;;;;;5077999;28;45387;-66
2022/07/16 04:20:06;;;;;;;;;8.00;6.67;;;;;;;;5077864;28;46567;-67
2022/07/16 04:22:32;;;;;;;;;6.00;5.33;;;;;;;;5077560;28;45311;-65
2022/07/16 04:24:57;;;;;;;;;7.00;5.00;;;;;;;;5077685;28;45558;-66
2022/07/16 04:27:22;;;;;;;;;6.00;6.00;;;;;;;;5078039;28;45361;-66
2022/07/16 04:29:47;;;;;;;;;7.67;7.00;;;;;;;;5077566;28;46297;-66
2022/07/16 04:32:13;;;;;;;;;7.33;6.67;;;;;;;;5077853;28;45231;-66
2022/07/16 04:34:38;;;;;;;;;6.00;5.67;;;;;;;;5077609;28;45420;-67
2022/07/16 04:37:03;;;;;;;;;6.00;6.00;;;;;;;;5077540;28;45308;-67
2022/07/16 04:39:28;;;;;;;;;6.00;6.00;;;;;;;;5077595;28;46198;-67
2022/07/16 04:41:54;;;;;;;;;7.00;7.00;;;;;;;;5076069;28;45394;-67
2022/07/16 04:44:19;;;;;;;;;8.00;6.67;;;;;;;;5077165;28;45381;-67
2022/07/16 04:46:44;;;;;;;;;7.33;6.00;;;;;;;;5077750;28;45410;-67
2022/07/16 04:49:09;;;;;;;;;7.33;7.33;;;;;;;;5077280;28;46569;-68
2022/07/16 04:51:34;;;;;;;;;9.67;8.00;;;;;;;;5077257;28;45372;-68
2022/07/16 04:54:00;;;;;;;;;5.67;5.67;;;;;;;;5077500;28;45345;-71
2022/07/16 04:56:25;;;;;;;;;6.00;6.00;;;;;;;;5078769;28;45311;-70
2022/07/16 04:58:50;;;;;;;;;10.33;7.00;;;;;;;;5080805;28;45429;-70
2022/07/16 05:01:16;;;;;;;;;7.00;6.00;;;;;;;;5080702;28;45426;-70
2022/07/16 05:03:41;;;;;;;;;5.00;5.00;;;;;;;;5080628;28;45375;-71
2022/07/16 05:06:06;;;;;;;;;5.67;5.67;;;;;;;;5081045;28;45405;-71
2022/07/16 05:08:31;;;;;;;;;5.33;5.00;;;;;;;;5080802;27;45403;-71
2022/07/16 05:10:57;;;;;;;;;6.67;6.33;;;;;;;;5080609;28;45253;-71
2022/07/16 05:13:22;;;;;;;;;10.00;8.00;;;;;;;;5080870;28;45258;-71
2022/07/16 05:15:47;;;;;;;;;14.67;14.67;;;;;;;;5080654;28;45499;-70
2022/07/16 05:18:12;;;;;;;;;11.33;7.00;;;;;;;;5080473;28;45437;-68
2022/07/16 05:20:38;;;;;;;;;7.33;6.33;;;;;;;;5080574;28;45323;-68
2022/07/16 05:23:03;;;;;;;;;4.50;4.50;;;;;;;;5080631;28;45491;-68
2022/07/16 05:25:28;;;;;;;;;11.00;6.00;;;;;;;;5080759;28;45439;-68
2022/07/16 05:27:54;;;;;;;;;7.00;6.00;;;;;;;;5080147;28;46243;-68
2022/07/16 05:30:19;;;;;;;;;5.67;5.67;;;;;;;;5080302;28;45185;-68
2022/07/16 05:32:44;;;;;;;;;9.00;6.33;;;;;;;;5080589;28;45308;-68
2022/07/16 05:35:11;;;;;;;;;6.00;6.00;;;;;;;;5080201;28;45236;-68
2022/07/16 05:37:36;;;;;;;;;7.33;6.00;;;;;;;;5080071;28;47319;-68
2022/07/16 05:40:02;;;;;;;;;7.67;7.00;;;;;;;;5080035;28;45419;-68
2022/07/16 05:42:27;;;;;;;;;8.00;7.00;;;;;;;;5080466;28;45283;-68
2022/07/16 05:44:52;;;;;;;;;6.67;6.67;;;;;;;;5080603;28;45392;-67
2022/07/16 05:47:17;;;;;;;;;7.67;6.33;;;;;;;;5079978;28;45519;-67
2022/07/16 05:49:43;;;;;;;;;9.00;6.67;;;;;;;;5079973;28;45310;-67
2022/07/16 05:52:08;;;;;;;;;6.67;6.67;;;;;;;;5080279;28;45428;-68
2022/07/16 05:54:33;;;;;;;;;9.33;9.00;;;;;;;;5080193;28;45426;-69
2022/07/16 05:56:58;;;;;;;;;12.00;7.33;;;;;;;;5080022;28;45380;-70
2022/07/16 05:59:24;;;;;;;;;9.33;9.33;;;;;;;;5079694;28;45338;-70
2022/07/16 06:01:49;;;;;;;;;7.67;7.00;;;;;;;;5080009;28;45431;-68
2022/07/16 06:04:14;;;;;;;;;7.00;7.00;;;;;;;;5079775;28;45410;-69
2022/07/16 06:06:39;;;;;;;;;7.00;7.00;;;;;;;;5079365;28;46129;-69
2022/07/16 06:09:05;;;;;;;;;7.33;7.33;;;;;;;;5078543;28;45424;-69
2022/07/16 06:11:30;;;;;;;;;6.00;6.00;;;;;;;;5079148;28;45358;-68
2022/07/16 06:13:55;;;;;;;;;8.33;6.67;;;;;;;;5079963;28;45342;-68
2022/07/16 06:16:22;;;;;;;;;8.00;6.33;;;;;;;;5079497;28;45483;-67
2022/07/16 06:18:47;;;;;;;;;9.67;6.67;;;;;;;;5079528;28;45430;-68
2022/07/16 06:21:13;;;;;;;;;6.33;6.00;;;;;;;;5079305;28;45329;-67
2022/07/16 06:23:38;;;;;;;;;5.67;4.33;;;;;;;;5079603;28;45262;-68
2022/07/16 06:26:03;;;;;;;;;7.00;4.00;;;;;;;;5079111;28;46359;-68
2022/07/16 06:28:28;;;;;;;;;6.00;5.33;;;;;;;;5079424;28;45296;-68
2022/07/16 06:30:54;;;;;;;;;5.00;5.00;;;;;;;;5079587;28;45488;-68
2022/07/16 06:33:19;;;;;;;;;5.33;5.33;;;;;;;;5079283;28;45461;-69
2022/07/16 06:35:44;;;;;;;;;4.33;4.33;;;;;;;;5078987;28;45514;-68
2022/07/16 06:38:09;;;;;;;;;4.00;4.00;;;;;;;;5061179;28;45390;-67
2022/07/16 06:40:35;;;;;;;;;4.00;4.00;;;;;;;;5079257;28;45434;-68
2022/07/16 06:43:00;;;;;;;;;5.33;5.00;;;;;;;;5079499;28;45283;-67
2022/07/16 06:45:26;;;;;;;;;3.00;3.00;;;;;;;;5079017;28;46163;-68
2022/07/16 06:47:51;;;;;;;;;5.33;3.67;;;;;;;;5078901;28;45281;-67
2022/07/16 06:50:16;;;;;;;;;3.33;3.33;;;;;;;;5079123;28;45629;-67
2022/07/16 06:52:42;;;;;;;;;5.00;3.33;;;;;;;;5079047;28;45353;-68
2022/07/16 06:55:07;;;;;;;;;6.00;4.00;;;;;;;;5078814;28;47171;-67
2022/07/16 06:57:33;;;;;;;;;5.00;5.00;;;;;;;;5060481;28;45453;-68
2022/07/16 06:59:58;;;;;;;;;4.67;4.67;;;;;;;;5078763;28;45601;-68
2022/07/16 07:02:23;;;;;;;;;6.67;4.00;;;;;;;;5079116;28;45656;-68
2022/07/16 07:04:49;;;;;;;;;3.00;3.00;;;;;;;;5078408;28;45617;-67
2022/07/16 07:07:14;;;;;;;;;5.67;2.00;;;;;;;;5078644;28;45417;-67
2022/07/16 07:09:39;;;;;;;;;4.67;4.00;;;;;;;;5078796;28;45414;-68
2022/07/16 07:12:05;;;;;;;;;4.33;4.00;;;;;;;;5079064;28;45359;-67
2022/07/16 07:14:30;;;;;;;;;4.00;4.00;;;;;;;;5078631;28;46357;-67
2022/07/16 07:16:55;;;;;;;;;3.33;3.33;;;;;;;;5078275;28;45401;-68
2022/07/16 07:19:20;;;;;;;;;4.67;3.00;;;;;;;;5078515;28;45378;-68
2022/07/16 07:21:45;;;;;;;;;4.67;4.67;;;;;;;;5078720;28;45290;-67
2022/07/16 07:24:11;;;;;;;;;5.00;5.00;;;;;;;;5078597;28;45351;-68
2022/07/16 07:26:36;;;;;;;;;7.00;4.33;;;;;;;;5078564;28;45352;-68
2022/07/16 07:29:01;;;;;;;;;7.33;7.33;;;;;;;;5060265;28;45321;-68
2022/07/16 07:31:26;;;;;;;;;6.33;5.00;;;;;;;;5079017;28;45438;-72
2022/07/16 07:33:52;;;;;;;;;5.33;3.67;;;;;;;;5078838;28;45431;-73
2022/07/16 07:36:17;;;;;;;;;5.67;4.00;;;;;;;;5078186;28;45429;-72
2022/07/16 07:38:42;;;;;;;;;2.33;2.33;;;;;;;;5078273;28;45302;-73
2022/07/16 07:41:09;;;;;;;;;4.00;4.00;;;;;;;;5078589;28;45572;-72
2022/07/16 07:43:34;;;;;;;;;6.00;4.00;;;;;;;;5078246;27;45396;-73
2022/07/16 07:45:59;;;;;;;;;7.33;4.33;;;;;;;;5077951;28;45146;-72
2022/07/16 07:48:24;;;;;;;;;4.00;4.00;;;;;;;;5078148;28;45238;-74
2022/07/16 07:50:50;;;;;;;;;4.67;4.67;;;;;;;;5078341;28;45372;-73
2022/07/16 07:53:15;;;;;;;;;4.67;4.33;;;;;;;;5077878;28;46436;-72
2022/07/16 07:55:41;;;;;;;;;6.00;3.00;;;;;;;;5077925;28;45244;-69
2022/07/16 07:58:06;;;;;;;;;5.33;5.33;;;;;;;;5078024;28;45231;-68
2022/07/16 08:00:31;;;;;;;;;7.00;5.00;;;;;;;;5078078;27;45205;-69
2022/07/16 08:02:57;;;;;;;;;5.67;4.67;;;;;;;;5075907;28;46282;-69
2022/07/16 08:05:22;;;;;;;;;3.33;3.33;;;;;;;;5074525;28;45751;-69
2022/07/16 08:07:48;;;;;;;;;8.00;4.67;;;;;;;;5075855;28;45449;-69
2022/07/16 08:10:14;;;;;;;;;4.67;4.67;;;;;;;;5076231;28;45379;-69
2022/07/16 08:12:39;;;;;;;;;4.67;4.00;;;;;;;;5076017;28;45471;-69
2022/07/16 08:15:05;;;;;;;;;3.00;3.00;;;;;;;;5076103;28;45466;-68
2022/07/16 08:17:30;;;;;;;;;4.33;4.00;;;;;;;;5077877;28;45288;-71
2022/07/16 08:19:56;;;;;;;;;5.00;4.00;;;;;;;;5078150;28;45385;-72
2022/07/16 08:22:21;;;;;;;;;5.00;4.00;;;;;;;;5077500;28;47008;-73
2022/07/16 08:27:30;;;;;;;;;6.67;5.67;;;;;;;;5077726;28;45319;-70
2022/07/16 08:29:55;;;;;;;;;3.67;3.33;;;;;;;;5077847;28;45438;-68
2022/07/16 08:32:21;;;;;;;;;4.00;4.00;;;;;;;;5083562;28;45396;-69
2022/07/16 08:34:46;;;;;;;;;7.00;4.67;;;;;;;;5084288;28;45334;-71
2022/07/16 08:37:11;;;;;;;;;4.00;4.00;;;;;;;;5084224;28;45334;-71
2022/07/16 08:39:42;;;;;;;;;3.00;3.00;;;;;;;;5084667;28;45426;-72
2022/07/16 08:42:08;;;;;;;;;2.00;2.00;;;;;;;;5084092;28;46594;-71
2022/07/16 08:44:34;;;;;;;;;4.33;3.00;;;;;;;;5083966;28;45350;-71
2022/07/16 08:47:00;;;;;;;;;2.00;2.00;;;;;;;;5084423;28;45758;-72
2022/07/16 08:49:25;;;;;;;;;5.00;4.00;;;;;;;;5084434;28;45208;-72
2022/07/16 08:51:52;;;;;;;;;3.00;2.33;;;;;;;;5084008;28;45464;-69
2022/07/16 08:54:21;;;;;;;;;2.67;2.00;;;;;;;;5083974;28;45236;-72
2022/07/16 08:56:48;;;;;;;;;4.00;4.00;;;;;;;;5084069;28;45358;-74
2022/07/16 08:59:13;;;;;;;;;3.33;2.00;;;;;;;;5084336;28;45439;-70
2022/07/16 09:01:38;;;;;;;;;3.00;2.67;;;;;;;;5083706;28;45352;-66
2022/07/16 09:04:04;;;;;;;;;3.00;3.00;;;;;;;;5083794;28;45341;-67
2022/07/16 09:06:29;;;;;;;;;3.00;3.00;;;;;;;;5083943;28;45356;-67
2022/07/16 09:08:55;;;;;;;;;4.67;3.67;;;;;;;;5084109;28;45508;-67
2022/07/16 09:11:22;;;;;;;;;3.33;2.00;;;;;;;;5084126;28;46123;-67
2022/07/16 09:14:06;;;;;;;;;3.00;3.00;;;;;;;;5083725;28;45401;-68
2022/07/16 09:16:52;;;;;;;;;3.00;3.00;;;;;;;;5083805;28;45450;-67
2022/07/16 09:19:18;;;;;;;;;2.00;2.00;;;;;;;;5083713;28;45213;-67
2022/07/16 09:22:02;;;;;;;;;4.00;2.33;;;;;;;;5083565;28;46330;-67
2022/07/16 09:24:35;;;;;;;;;2.00;2.00;;;;;;;;5083695;28;45236;-67
2022/07/16 09:27:04;;;;;;;;;3.00;3.00;;;;;;;;5083694;28;45319;-67
2022/07/16 09:29:32;;;;;;;;;1.67;1.67;;;;;;;;5083832;28;45405;-68
2022/07/16 09:31:57;;;;;;;;;1.00;1.00;;;;;;;;5083633;28;45693;-67
2022/07/16 09:34:22;;;;;;;;;4.00;4.00;;;;;;;;5083474;28;45387;-67
2022/07/16 09:37:02;;;;;;;;;4.00;4.00;;;;;;;;5083477;28;45357;-67
2022/07/16 09:39:28;;;;;;;;;2.67;2.67;;;;;;;;5084067;28;45536;-67
2022/07/16 09:41:53;;;;;;;;;5.00;2.00;;;;;;;;5082774;28;46530;-67
2022/07/16 09:44:20;;;;;;;;;4.00;3.00;;;;;;;;5079936;28;45364;-66
2022/07/16 09:47:01;;;;;;;;;3.00;3.00;;;;;;;;5080274;28;45453;-67
2022/07/16 09:49:27;;;;;;;;;1.00;1.00;;;;;;;;5080287;28;45358;-67
2022/07/16 09:51:52;;;;;;;;;4.00;2.00;;;;;;;;5061302;28;45811;-67
2022/07/16 09:54:29;;;;;;;;;3.00;3.00;;;;;;;;5079998;28;45289;-67
2022/07/16 09:57:07;;;;;;;;;4.67;4.67;;;;;;;;5079952;28;45240;-66
2022/07/16 09:59:33;;;;;;;;;3.00;2.67;;;;;;;;5080039;28;45501;-66
2022/07/16 10:01:58;;;;;;;;;1.67;1.67;;;;;;;;5079907;28;46037;-67
2022/07/16 10:04:24;;;;;;;;;3.67;3.67;;;;;;;;5079474;28;45296;-66
2022/07/16 10:06:49;;;;;;;;;1.00;0.67;;;;;;;;5077554;28;45618;-66
2022/07/16 10:09:14;;;;;;;;;2.67;2.67;;;;;;;;5078561;28;45427;-67
2022/07/16 10:11:42;;;;;;;;;1.67;1.67;;;;;;;;5075309;28;46516;-68
2022/07/16 10:14:07;;;;;;;;;0.33;0.33;;;;;;;;5078523;28;45825;-68
2022/07/16 10:16:40;;;;;;;;;1.33;0.00;;;;;;;;5063150;28;45538;-67
2022/07/16 10:19:06;;;;;;;;;2.00;2.00;;;;;;;;5069407;28;45422;-67
2022/07/16 10:21:31;;;;;;;;;0.00;0.00;;;;;;;;5059253;28;45574;-67
2022/07/16 10:24:08;;;;;;;;;1.75;1.75;;;;;;;;5059055;28;45396;-66
2022/07/16 10:26:34;;;;;;;;;0.67;0.67;;;;;;;;5059261;28;45449;-70
2022/07/16 10:29:00;;;;;;;;;0.75;0.75;;;;;;;;5059360;28;45312;-69
2022/07/16 10:31:31;;;;;;;;;3.50;3.50;;;;;;;;5067944;28;45441;-70
2022/07/16 10:34:15;;;;;;;;;0.00;0.00;;;;;;;;5079120;28;45457;-68
2022/07/16 10:36:48;;;;;;;;;0.50;0.00;;;;;;;;5066741;28;45498;-69
2022/07/16 10:39:16;;;;;;;;;0.25;0.25;;;;;;;;5079239;28;45495;-70
2022/07/16 10:41:49;;;;;;;;;3.00;3.00;;;;;;;;5072681;28;46277;-69
2022/07/16 10:44:14;;;;;;;;;3.75;1.75;;;;;;;;5067835;28;45497;-72
2022/07/16 10:46:59;;;;;;;;;0.67;0.67;;;;;;;;5068014;28;45353;-71
2022/07/16 10:49:26;;;;;;;;;0.00;0.00;;;;;;;;5062460;28;45353;-71
2022/07/16 10:51:58;;;;;;;;;0.00;0.00;;;;;;;;5076363;27;45582;-69
2022/07/16 10:54:25;;;;;;;;;2.00;0.00;;;;;;;;5078283;28;45533;-70
2022/07/16 10:56:51;;;;;;;;;1.00;1.00;;;;;;;;5079086;28;45372;-71
2022/07/16 10:59:19;;;;;;;;;0.00;0.00;;;;;;;;5079125;28;45581;-70
2022/07/16 11:01:45;;;;;;;;;1.00;1.00;;;;;;;;5078655;28;46143;-71
2022/07/16 11:04:11;;;;;;;;;3.75;3.75;;;;;;;;5078352;28;45462;-71
2022/07/16 11:06:37;;;;;;;;;3.75;1.75;;;;;;;;5078765;28;45466;-71
2022/07/16 11:09:04;;;;;;;;;2.00;0.33;;;;;;;;5079020;28;45372;-70
2022/07/16 11:11:36;;;;;;;;;1.00;1.00;;;;;;;;5078578;28;46526;-70
2022/07/16 11:14:02;;;;;;;;;1.67;1.67;;;;;;;;5078778;28;45337;-71
2022/07/16 11:16:28;;;;;;;;;2.00;1.00;;;;;;;;5078510;28;45360;-71
2022/07/16 11:18:53;;;;;;;;;1.00;1.00;;;;;;;;5077976;27;45321;-71
2022/07/16 11:21:18;;;;;;;;;0.00;0.00;;;;;;;;5078840;28;46678;-70
2022/07/16 11:23:51;;;;;;;;;0.67;0.67;;;;;;;;5078448;28;45335;-71
2022/07/16 11:26:17;;;;;;;;;0.33;0.33;;;;;;;;5078784;28;45245;-70
2022/07/16 11:28:50;;;;;;;;;2.00;0.67;;;;;;;;5078789;28;45424;-69
2022/07/16 11:31:22;;;;;;;;;1.67;0.67;;;;;;;;5078097;27;46433;-71
2022/07/16 11:33:47;;;;;;;;;1.67;0.67;;;;;;;;5078085;28;45343;-70
2022/07/16 11:36:13;;;;;;;;;0.67;0.67;;;;;;;;5078076;28;45268;-70
2022/07/16 11:38:38;;;;;;;;;0.67;0.67;;;;;;;;5078393;28;45490;-70
2022/07/16 11:41:04;;;;;;;;;0.00;0.00;;;;;;;;5080286;27;46552;-69
2022/07/16 11:43:29;;;;;;;;;0.33;0.33;;;;;;;;5077593;28;45286;-69
2022/07/16 11:45:55;;;;;;;;;1.00;1.00;;;;;;;;5077969;28;45434;-70
2022/07/16 11:48:20;;;;;;;;;1.00;1.00;;;;;;;;5078511;28;45388;-71
2022/07/16 11:50:46;;;;;;;;;1.00;1.00;;;;;;;;5077786;28;46443;-70
2022/07/16 11:53:12;;;;;;;;;3.00;1.00;;;;;;;;5077030;28;45509;-69
2022/07/16 11:55:44;;;;;;;;;1.00;1.00;;;;;;;;5077245;28;45390;-70
2022/07/16 11:58:12;;;;;;;;;1.00;1.00;;;;;;;;5078628;28;45516;-69
2022/07/16 12:00:44;;;;;;;;;2.00;0.33;;;;;;;;5077815;27;46487;-70
2022/07/16 12:03:10;;;;;;;;;1.00;1.00;;;;;;;;5077473;28;45237;-69
2022/07/16 12:05:35;;;;;;;;;0.67;0.00;;;;;;;;5075739;28;45445;-68
2022/07/16 12:08:03;;;;;;;;;1.33;1.00;;;;;;;;5077181;28;45892;-68
2022/07/16 12:10:28;;;;;;;;;0.33;0.33;;;;;;;;5076426;28;46728;-68
2022/07/16 12:13:01;;;;;;;;;1.00;1.00;;;;;;;;5076756;28;45545;-69
2022/07/16 12:15:27;;;;;;;;;1.33;1.00;;;;;;;;5088424;27;45215;-68
2022/07/16 12:17:52;;;;;;;;;1.67;1.67;;;;;;;;5079682;27;45517;-69
2022/07/16 12:20:19;;;;;;;;;0.00;0.00;;;;;;;;5076167;28;46310;-68
2022/07/16 12:23:05;;;;;;;;;2.00;2.00;;;;;;;;5083739;27;45411;-67
2022/07/16 12:25:36;;;;;;;;;2.00;2.00;;;;;;;;5096538;27;45532;-68
2022/07/16 12:28:16;;;;;;;;;1.33;1.00;;;;;;;;5079477;27;45313;-69
2022/07/16 12:30:55;;;;;;;;;1.33;1.33;;;;;;;;5076505;28;46296;-70
2022/07/16 12:33:27;;;;;;;;;2.00;1.00;;;;;;;;5077571;28;45200;-70
2022/07/16 12:36:05;;;;;;;;;2.00;1.00;;;;;;;;5083593;27;46315;-69
2022/07/16 12:38:37;;;;;;;;;1.33;1.00;;;;;;;;5077747;28;45942;-68
2022/07/16 12:41:02;;;;;;;;;1.00;1.00;;;;;;;;5075979;28;45442;-68
2022/07/16 12:43:27;;;;;;;;;2.00;2.00;;;;;;;;5077538;28;45330;-69
2022/07/16 12:45:53;;;;;;;;;1.00;1.00;;;;;;;;5077508;28;45479;-70
2022/07/16 12:48:18;;;;;;;;;3.33;1.67;;;;;;;;5077730;28;45420;-68
2022/07/16 12:50:43;;;;;;;;;1.67;1.00;;;;;;;;5077509;28;46654;-69
2022/07/16 12:53:08;;;;;;;;;1.00;1.00;;;;;;;;5077103;28;45478;-69
2022/07/16 13:01:03;;;;;;;;;2.00;2.00;;;;;;;;5053576;28;45471;-67
2022/07/16 13:03:28;;;;;;;;;2.67;1.00;;;;;;;;5053286;28;45496;-68
2022/07/16 13:05:53;;;;;;;;;5.00;3.67;;;;;;;;5054368;28;45429;-66
2022/07/16 13:08:18;;;;;;;;;4.00;2.00;;;;;;;;5054133;28;45293;-69
2022/07/16 13:10:44;;;;;;;;;1.00;1.00;;;;;;;;5053727;28;47148;-67
2022/07/16 13:13:09;;;;;;;;;2.33;1.00;;;;;;;;5054049;28;45421;-69
2022/07/16 13:15:34;;;;;;;;;2.00;1.00;;;;;;;;5053886;28;45575;-70
2022/07/16 13:17:59;;;;;;;;;1.00;1.00;;;;;;;;5056436;28;45416;-69
2022/07/16 13:20:25;;;;;;;;;1.00;1.00;;;;;;;;5057372;28;46459;-70
2022/07/16 13:22:50;;;;;;;;;1.00;1.00;;;;;;;;5057135;28;45471;-68
2022/07/16 13:25:15;;;;;;;;;2.00;2.00;;;;;;;;5057644;28;45529;-68
2022/07/16 13:27:40;;;;;;;;;1.00;1.00;;;;;;;;5057518;28;45412;-69
2022/07/16 13:30:06;;;;;;;;;2.00;2.00;;;;;;;;5057219;28;45424;-69
2022/07/16 13:32:31;;;;;;;;;2.00;2.00;;;;;;;;5057268;28;45409;-69
2022/07/16 13:34:57;;;;;;;;;1.00;1.00;;;;;;;;5063940;28;45525;-69
2022/07/16 13:37:22;;;;;;;;;1.00;1.00;;;;;;;;5079912;28;45312;-69
2022/07/16 13:39:47;;;;;;;;;3.33;2.00;;;;;;;;5079547;28;45500;-69
2022/07/16 13:42:12;;;;;;;;;2.00;0.00;;;;;;;;5079795;28;45330;-68
2022/07/16 13:44:38;;;;;;;;;2.00;1.00;;;;;;;;5079767;28;45343;-67
2022/07/16 13:47:03;;;;;;;;;2.00;2.00;;;;;;;;5079907;28;45427;-68
2022/07/16 13:49:28;;;;;;;;;1.00;1.00;;;;;;;;5079360;28;46319;-68
2022/07/16 13:51:54;;;;;;;;;1.00;1.00;;;;;;;;5079423;28;45413;-68
2022/07/16 13:54:19;;;;;;;;;1.00;1.00;;;;;;;;5079595;28;45332;-69
2022/07/16 13:56:44;;;;;;;;;1.00;1.00;;;;;;;;5079489;28;45345;-70
2022/07/16 13:59:09;;;;;;;;;2.33;1.00;;;;;;;;5079405;28;46428;-70
2022/07/16 14:01:34;;;;;;;;;1.00;1.00;;;;;;;;5079284;28;45501;-69
2022/07/16 14:04:01;;;;;;;;;1.00;1.00;;;;;;;;5079217;28;45406;-68
2022/07/16 14:06:26;;;;;;;;;3.00;1.00;;;;;;;;5079528;28;45417;-68
2022/07/16 14:08:51;;;;;;;;;2.00;1.00;;;;;;;;5078677;28;46455;-69
2022/07/16 14:11:17;;;;;;;;;4.00;1.00;;;;;;;;5079281;28;45425;-70
2022/07/16 14:13:42;;;;;;;;;1.67;1.67;;;;;;;;5079062;28;45443;-69
2022/07/16 14:16:07;;;;;;;;;1.33;1.33;;;;;;;;5079162;28;45420;-69
2022/07/16 14:18:33;;;;;;;;;1.67;1.67;;;;;;;;5079191;28;45442;-69
2022/07/16 14:20:58;;;;;;;;;1.67;1.67;;;;;;;;5079032;28;45513;-69
2022/07/16 14:23:23;;;;;;;;;2.00;2.00;;;;;;;;5079231;28;45373;-68
2022/07/16 14:25:48;;;;;;;;;1.00;1.00;;;;;;;;5079280;28;45354;-68
2022/07/16 14:28:14;;;;;;;;;1.67;1.67;;;;;;;;5078176;28;45547;-68
2022/07/16 14:30:40;;;;;;;;;2.67;1.00;;;;;;;;5078430;28;45413;-70
2022/07/16 14:33:05;;;;;;;;;0.33;0.33;;;;;;;;5078818;28;45467;-69
2022/07/16 14:35:30;;;;;;;;;3.00;1.67;;;;;;;;5079125;28;45374;-69
2022/07/16 14:37:56;;;;;;;;;3.00;2.00;;;;;;;;5078652;28;45438;-71
2022/07/16 14:40:21;;;;;;;;;1.00;1.00;;;;;;;;5078558;28;45509;-69
2022/07/16 14:42:48;;;;;;;;;0.00;0.00;;;;;;;;5078893;28;45330;-70
2022/07/16 14:45:14;;;;;;;;;1.33;1.33;;;;;;;;5078789;28;45479;-70
2022/07/16 14:47:40;;;;;;;;;1.00;1.00;;;;;;;;5078592;28;45453;-68
2022/07/16 14:50:05;;;;;;;;;1.00;1.00;;;;;;;;5078450;28;45351;-69